createdAt,value
2022-09-10T00:01:20.440Z,15.70
2022-09-10T00:03:50.197Z,15.70
2022-09-10T00:06:19.204Z,15.70
2022-09-10T00:08:47.946Z,15.70
2022-09-10T00:11:16.161Z,15.70
2022-09-10T00:13:44.341Z,15.60
2022-09-10T00:16:13.488Z,15.60
2022-09-10T00:18:41.831Z,15.60
2022-09-10T00:21:12.868Z,15.50
2022-09-10T00:23:41.557Z,15.50
2022-09-10T00:26:15.230Z,15.50
2022-09-10T00:28:43.625Z,15.50
2022-09-10T00:31:13.474Z,15.50
2022-09-10T00:33:43.636Z,15.50
2022-09-10T00:36:18.414Z,15.50
2022-09-10T00:38:46.923Z,15.50
2022-09-10T00:41:15.576Z,15.50
2022-09-10T00:43:51.575Z,15.40
2022-09-10T00:46:23.745Z,15.40
2022-09-10T00:48:52.644Z,15.40
2022-09-10T00:51:23.335Z,15.30
2022-09-10T00:53:52.084Z,15.40
2022-09-10T00:56:23.204Z,15.30
2022-09-10T00:58:52.575Z,15.30
2022-09-10T01:01:21.339Z,15.30
2022-09-10T01:03:50.533Z,15.30
2022-09-10T01:06:18.835Z,15.30
2022-09-10T01:08:48.476Z,15.20
2022-09-10T01:11:26.714Z,15.20
2022-09-10T01:14:02.741Z,15.20
2022-09-10T01:16:36.071Z,15.10
2022-09-10T01:19:08.484Z,15.10
2022-09-10T01:21:38.484Z,15.10
2022-09-10T01:24:23.266Z,15.10
2022-09-10T01:27:07.381Z,15.10
2022-09-10T01:29:39.174Z,15.10
2022-09-10T01:32:09.185Z,15.10
2022-09-10T01:34:41.915Z,15.10
2022-09-10T01:37:12.476Z,15.10
2022-09-10T01:39:40.976Z,15.10
2022-09-10T01:42:09.106Z,15.10
2022-09-10T01:44:43.624Z,15.10
2022-09-10T01:47:17.841Z,15.10
2022-09-10T01:49:58.360Z,15.10
2022-09-10T01:52:31.205Z,15.10
2022-09-10T01:55:04.489Z,15.00
2022-09-10T01:57:38.917Z,15.00
2022-09-10T02:00:10.936Z,15.10
2022-09-10T02:02:43.103Z,15.10
2022-09-10T02:05:12.355Z,15.10
2022-09-10T02:07:40.721Z,15.10
2022-09-10T02:10:10.935Z,15.10
2022-09-10T02:12:40.245Z,15.10
2022-09-10T02:15:11.712Z,15.10
2022-09-10T02:17:40.587Z,15.10
2022-09-10T02:20:10.222Z,15.10
2022-09-10T02:22:40.445Z,15.10
2022-09-10T02:25:09.988Z,15.00
2022-09-10T02:27:38.444Z,15.00
2022-09-10T02:30:07.317Z,15.00
2022-09-10T02:32:36.904Z,15.00
2022-09-10T02:35:05.552Z,15.00
2022-09-10T02:37:33.726Z,15.00
2022-09-10T02:40:01.955Z,15.00
2022-09-10T02:42:30.114Z,15.00
2022-09-10T02:44:58.235Z,15.00
2022-09-10T02:47:26.521Z,15.00
2022-09-10T02:49:56.164Z,15.00
2022-09-10T02:52:24.293Z,15.00
2022-09-10T02:54:52.511Z,15.00
2022-09-10T02:57:21.256Z,15.00
2022-09-10T02:59:49.440Z,15.00
2022-09-10T03:02:17.592Z,14.90
2022-09-10T03:04:45.835Z,14.90
2022-09-10T03:07:17.295Z,14.90
2022-09-10T03:09:45.381Z,14.90
2022-09-10T03:12:13.801Z,14.90
2022-09-10T03:14:43.994Z,14.90
2022-09-10T03:17:12.344Z,15.00
2022-09-10T03:19:40.733Z,14.90
2022-09-10T03:22:08.857Z,14.80
2022-09-10T03:24:38.391Z,14.80
2022-09-10T03:27:06.950Z,14.80
2022-09-10T03:29:35.051Z,14.80
2022-09-10T03:32:03.435Z,14.70
2022-09-10T03:34:31.555Z,14.80
2022-09-10T03:36:59.826Z,14.70
2022-09-10T03:39:28.055Z,14.80
2022-09-10T03:41:58.647Z,14.70
2022-09-10T03:44:26.761Z,14.70
2022-09-10T03:46:54.904Z,14.60
2022-09-10T03:49:23.060Z,14.50
2022-09-10T03:51:51.175Z,14.70
2022-09-10T03:54:19.496Z,14.60
2022-09-10T03:56:47.884Z,14.70
2022-09-10T03:59:17.603Z,14.70
2022-09-10T04:01:45.791Z,14.60
2022-09-10T04:04:15.064Z,14.70
2022-09-10T04:06:44.684Z,14.80
2022-09-10T04:09:13.181Z,14.80
2022-09-10T04:11:41.351Z,14.80
2022-09-10T04:14:09.484Z,14.90
2022-09-10T04:16:41.891Z,14.90
2022-09-10T04:19:10.535Z,15.00
2022-09-10T04:21:38.745Z,14.90
2022-09-10T04:24:09.841Z,15.00
2022-09-10T04:26:37.978Z,15.00
2022-09-10T04:29:06.206Z,15.00
2022-09-10T04:31:35.564Z,15.00
2022-09-10T04:34:05.595Z,14.90
2022-09-10T04:36:33.714Z,14.90
2022-09-10T04:39:01.864Z,14.90
2022-09-10T04:41:30.014Z,14.90
2022-09-10T04:43:58.602Z,14.90
2022-09-10T04:46:26.906Z,14.90
2022-09-10T04:48:55.137Z,14.90
2022-09-10T04:51:24.904Z,14.90
2022-09-10T04:53:53.784Z,14.90
2022-09-10T04:56:22.235Z,15.00
2022-09-10T04:58:50.296Z,15.00
2022-09-10T05:01:18.557Z,15.00
2022-09-10T05:03:46.910Z,15.00
2022-09-10T05:06:15.138Z,15.00
2022-09-10T05:08:44.747Z,15.10
2022-09-10T05:11:13.890Z,15.10
2022-09-10T05:13:43.259Z,15.20
2022-09-10T05:16:11.924Z,15.10
2022-09-10T05:18:40.433Z,15.10
2022-09-10T05:21:08.900Z,15.20
2022-09-10T05:23:37.060Z,15.20
2022-09-10T05:26:07.021Z,15.40
2022-09-10T05:28:35.208Z,15.40
2022-09-10T05:31:03.910Z,15.40
2022-09-10T05:33:32.030Z,15.40
2022-09-10T05:36:00.340Z,15.40
2022-09-10T05:38:28.665Z,15.50
2022-09-10T05:40:57.670Z,15.50
2022-09-10T05:43:27.733Z,15.60
2022-09-10T05:45:56.516Z,15.60
2022-09-10T05:48:25.260Z,15.70
2022-09-10T05:50:53.804Z,15.80
2022-09-10T05:53:21.928Z,15.90
2022-09-10T05:55:51.117Z,16.00
2022-09-10T05:58:19.236Z,16.10
2022-09-10T06:00:50.949Z,16.20
2022-09-10T06:03:19.464Z,16.30
2022-09-10T06:05:50.525Z,16.40
2022-09-10T06:08:19.020Z,16.60
2022-09-10T06:10:55.077Z,16.60
2022-09-10T06:13:23.136Z,16.50
2022-09-10T06:15:52.687Z,16.50
2022-09-10T06:18:21.398Z,16.60
2022-09-10T06:20:49.559Z,16.50
2022-09-10T06:23:18.243Z,16.50
2022-09-10T06:25:48.478Z,16.50
2022-09-10T06:28:17.559Z,16.50
2022-09-10T06:30:45.740Z,16.50
2022-09-10T06:33:16.766Z,16.50
2022-09-10T06:35:45.140Z,16.50
2022-09-10T06:38:13.210Z,16.50
2022-09-10T06:40:54.665Z,16.70
2022-09-10T06:43:23.675Z,16.80
2022-09-10T06:45:53.181Z,17.10
2022-09-10T06:48:47.654Z,17.30
2022-09-10T06:51:16.758Z,17.40
2022-09-10T06:53:46.659Z,17.50
2022-09-10T06:56:33.352Z,17.70
2022-09-10T06:59:02.750Z,17.60
2022-09-10T07:01:31.375Z,17.60
2022-09-10T07:04:03.068Z,17.80
2022-09-10T07:06:33.818Z,17.80
2022-09-10T07:09:03.689Z,17.80
2022-09-10T07:12:08.635Z,17.80
2022-09-10T07:14:37.173Z,17.80
2022-09-10T07:17:42.683Z,18.10
2022-09-10T07:20:13.212Z,18.20
2022-09-10T07:22:42.746Z,18.40
2022-09-10T07:25:11.323Z,18.60
2022-09-10T07:27:39.611Z,18.60
2022-09-10T07:30:08.529Z,18.70
2022-09-10T07:32:36.669Z,18.70
2022-09-10T07:35:05.420Z,18.70
2022-09-10T07:37:35.211Z,18.80
2022-09-10T07:40:04.456Z,18.90
2022-09-10T07:42:32.836Z,18.90
2022-09-10T07:45:00.995Z,19.00
2022-09-10T07:47:29.627Z,19.10
2022-09-10T07:49:58.582Z,19.00
2022-09-10T07:52:27.292Z,18.90
2022-09-10T07:54:57.473Z,18.80
2022-09-10T07:57:26.081Z,18.60
2022-09-10T07:59:55.297Z,18.60
2022-09-10T08:02:26.013Z,18.60
2022-09-10T08:04:56.767Z,18.60
2022-09-10T08:07:24.886Z,18.90
2022-09-10T08:09:54.192Z,19.00
2022-09-10T08:12:25.542Z,19.10
2022-09-10T08:14:54.934Z,19.20
2022-09-10T08:17:22.952Z,19.30
2022-09-10T08:19:51.909Z,19.40
2022-09-10T08:22:20.896Z,19.40
2022-09-10T08:24:49.602Z,19.50
2022-09-10T08:27:18.499Z,19.70
2022-09-10T08:29:48.233Z,19.80
2022-09-10T08:32:16.502Z,19.60
2022-09-10T08:34:44.613Z,19.90
2022-09-10T08:37:12.823Z,19.90
2022-09-10T08:39:40.969Z,19.80
2022-09-10T08:42:13.189Z,19.70
2022-09-10T08:44:47.784Z,19.70
2022-09-10T08:47:21.872Z,19.50
2022-09-10T08:49:52.568Z,19.30
2022-09-10T08:52:24.963Z,19.40
2022-09-10T08:54:58.485Z,19.30
2022-09-10T08:57:29.304Z,19.20
2022-09-10T08:59:58.402Z,19.30
2022-09-10T09:02:48.496Z,19.40
2022-09-10T09:05:20.470Z,19.70
2022-09-10T09:07:50.658Z,19.90
2022-09-10T09:10:27.821Z,19.90
2022-09-10T09:13:10.630Z,19.80
2022-09-10T09:15:44.620Z,19.60
2022-09-10T09:18:19.646Z,19.80
2022-09-10T09:21:07.084Z,19.80
2022-09-10T09:23:51.742Z,20.10
2022-09-10T09:26:32.330Z,20.00
2022-09-10T09:29:05.501Z,19.80
2022-09-10T09:31:35.623Z,19.60
2022-09-10T09:34:07.023Z,19.60
2022-09-10T09:36:40.167Z,19.30
2022-09-10T09:39:14.599Z,19.20
2022-09-10T09:41:48.621Z,19.30
2022-09-10T09:44:18.400Z,19.70
2022-09-10T09:46:47.811Z,19.60
2022-09-10T09:49:17.684Z,19.50
2022-09-10T09:51:46.809Z,19.30
2022-09-10T09:54:56.574Z,19.30
2022-09-10T09:57:15.903Z,19.20
2022-09-10T09:59:44.449Z,19.10
2022-09-10T10:02:14.431Z,19.20
2022-09-10T10:04:55.174Z,19.20
2022-09-10T10:07:31.180Z,19.20
2022-09-10T10:10:01.213Z,19.30
2022-09-10T10:12:32.807Z,19.70
2022-09-10T10:15:02.810Z,20.10
2022-09-10T10:17:41.834Z,20.30
2022-09-10T10:20:13.864Z,20.20
2022-09-10T10:22:43.984Z,20.10
2022-09-10T10:25:33.119Z,20.10
2022-09-10T10:28:03.882Z,20.20
2022-09-10T10:30:33.302Z,20.30
2022-09-10T10:33:03.305Z,20.50
2022-09-10T10:35:45.493Z,20.70
2022-09-10T10:38:29.934Z,20.70
2022-09-10T10:41:08.303Z,20.90
2022-09-10T10:43:43.373Z,21.30
2022-09-10T10:46:14.351Z,20.90
2022-09-10T10:48:48.479Z,20.60
2022-09-10T10:51:22.380Z,20.50
2022-09-10T10:53:59.894Z,20.40
2022-09-10T10:56:31.122Z,20.30
2022-09-10T10:59:05.668Z,20.30
2022-09-10T11:01:37.331Z,20.30
2022-09-10T11:04:13.113Z,20.20
2022-09-10T11:06:46.979Z,20.30
2022-09-10T11:09:18.111Z,20.40
2022-09-10T11:11:52.633Z,20.40
2022-09-10T11:14:23.872Z,20.50
2022-09-10T11:16:58.797Z,20.60
2022-09-10T11:19:35.902Z,20.60
2022-09-10T11:22:09.111Z,20.50
2022-09-10T11:24:41.284Z,20.50
2022-09-10T11:27:14.479Z,20.60
2022-09-10T11:29:45.875Z,20.70
2022-09-10T11:32:16.170Z,20.80
2022-09-10T11:34:49.842Z,20.70
2022-09-10T11:37:21.302Z,20.60
2022-09-10T11:39:52.644Z,20.60
2022-09-10T11:42:22.599Z,20.50
2022-09-10T11:44:57.228Z,20.50
2022-09-10T11:47:28.062Z,20.40
2022-09-10T11:50:00.900Z,20.40
2022-09-10T11:52:32.083Z,20.30
2022-09-10T11:55:02.962Z,20.20
2022-09-10T11:57:35.248Z,20.20
2022-09-10T12:00:41.151Z,20.30
2022-09-10T12:03:27.276Z,20.50
2022-09-10T12:06:32.342Z,20.80
2022-09-10T12:09:08.554Z,20.90
2022-09-10T12:11:42.551Z,21.00
2022-09-10T12:14:16.402Z,21.20
2022-09-10T12:16:46.854Z,21.40
2022-09-10T12:19:22.202Z,21.80
2022-09-10T12:22:10.575Z,21.80
2022-09-10T12:24:41.803Z,21.50
2022-09-10T12:27:17.407Z,21.20
2022-09-10T12:29:49.307Z,21.10
2022-09-10T12:32:29.887Z,21.00
2022-09-10T12:35:16.964Z,20.80
2022-09-10T12:37:46.563Z,20.70
2022-09-10T12:43:52.211Z,20.60
2022-09-10T12:46:44.850Z,20.50
2022-09-10T12:49:33.781Z,20.40
2022-09-10T12:52:06.492Z,20.20
2022-09-10T12:54:39.831Z,20.00
2022-09-10T12:57:18.937Z,19.80
2022-09-10T13:00:04.535Z,19.60
2022-09-10T13:02:53.796Z,19.60
2022-09-10T13:05:40.898Z,19.60
2022-09-10T13:08:14.577Z,19.60
2022-09-10T13:11:19.017Z,19.60
2022-09-10T13:13:54.719Z,19.50
2022-09-10T13:16:38.453Z,19.30
2022-09-10T13:19:21.361Z,19.20
2022-09-10T13:21:56.466Z,19.20
2022-09-10T13:24:40.770Z,19.20
2022-09-10T13:27:20.601Z,19.20
2022-09-10T13:29:52.719Z,19.30
2022-09-10T13:32:27.680Z,19.60
2022-09-10T13:35:10.667Z,19.80
2022-09-10T13:37:50.520Z,20.00
2022-09-10T13:40:32.151Z,20.30
2022-09-10T13:43:09.599Z,20.80
2022-09-10T13:45:39.981Z,20.70
2022-09-10T13:48:15.190Z,20.70
2022-09-10T13:50:49.277Z,20.70
2022-09-10T13:53:18.792Z,20.70
2022-09-10T13:55:52.140Z,20.70
2022-09-10T13:58:23.372Z,20.70
2022-09-10T14:00:54.610Z,20.90
2022-09-10T14:03:24.225Z,20.90
2022-09-10T14:05:55.851Z,21.30
2022-09-10T14:08:26.171Z,21.50
2022-09-10T14:10:58.088Z,21.40
2022-09-10T14:13:29.455Z,21.40
2022-09-10T14:15:58.845Z,21.30
2022-09-10T14:18:32.792Z,21.10
2022-09-10T14:21:01.483Z,20.90
2022-09-10T14:23:30.492Z,21.10
2022-09-10T14:26:13.522Z,21.30
2022-09-10T14:28:51.972Z,21.00
2022-09-10T14:31:22.268Z,20.70
2022-09-10T14:33:50.754Z,20.40
2022-09-10T14:36:22.066Z,20.30
2022-09-10T14:38:55.758Z,20.50
2022-09-10T14:41:26.572Z,20.60
2022-09-10T14:44:09.528Z,20.60
2022-09-10T14:46:49.140Z,20.90
2022-09-10T14:49:18.607Z,21.10
2022-09-10T14:51:47.812Z,21.10
2022-09-10T14:54:17.434Z,21.10
2022-09-10T14:56:48.283Z,21.10
2022-09-10T14:59:17.454Z,21.10
2022-09-10T15:01:48.507Z,21.10
2022-09-10T15:04:18.479Z,20.90
2022-09-10T15:06:48.098Z,20.60
2022-09-10T15:09:17.479Z,20.60
2022-09-10T15:11:52.178Z,20.60
2022-09-10T15:14:21.081Z,20.50
2022-09-10T15:16:51.781Z,20.50
2022-09-10T15:19:19.983Z,20.40
2022-09-10T15:21:48.182Z,20.50
2022-09-10T15:24:17.443Z,20.40
2022-09-10T15:26:45.918Z,20.40
2022-09-10T15:29:18.074Z,20.40
2022-09-10T15:31:46.437Z,20.40
2022-09-10T15:34:14.523Z,20.40
2022-09-10T15:36:43.080Z,20.40
2022-09-10T15:39:13.227Z,20.40
2022-09-10T15:41:43.054Z,20.30
2022-09-10T15:44:12.980Z,20.20
2022-09-10T15:46:45.552Z,20.10
2022-09-10T15:49:14.086Z,20.30
2022-09-10T15:51:42.516Z,20.30
2022-09-10T15:54:10.585Z,20.40
2022-09-10T15:56:38.688Z,20.40
2022-09-10T15:59:08.802Z,20.50
2022-09-10T16:01:38.578Z,20.40
2022-09-10T16:04:08.781Z,20.40
2022-09-10T16:06:39.403Z,20.30
2022-09-10T16:09:09.442Z,20.30
2022-09-10T16:11:39.072Z,20.30
2022-09-10T16:14:11.970Z,20.20
2022-09-10T16:16:41.056Z,20.10
2022-09-10T16:19:11.980Z,20.10
2022-09-10T16:21:40.518Z,20.00
2022-09-10T16:24:08.930Z,20.00
2022-09-10T16:26:38.501Z,19.90
2022-09-10T16:29:13.419Z,19.90
2022-09-10T16:31:42.068Z,19.80
2022-09-10T16:34:18.540Z,19.80
2022-09-10T16:36:47.436Z,19.70
2022-09-10T16:39:16.817Z,19.70
2022-09-10T16:42:21.940Z,19.60
2022-09-10T16:45:26.761Z,19.60
2022-09-10T16:47:55.387Z,19.50
2022-09-10T16:51:09.340Z,19.50
2022-09-10T16:54:02.665Z,19.40
2022-09-10T17:04:04.147Z,19.20
2022-09-10T17:06:34.947Z,19.20
2022-09-10T17:09:03.558Z,19.20
2022-09-10T17:11:32.704Z,19.10
2022-09-10T17:14:02.639Z,19.00
2022-09-10T17:16:32.824Z,19.00
2022-09-10T17:19:01.832Z,19.00
2022-09-10T17:21:32.508Z,19.00
2022-09-10T17:24:03.146Z,19.00
2022-09-10T17:26:33.061Z,19.00
2022-09-10T17:29:02.432Z,19.00
2022-09-10T17:31:32.860Z,18.90
2022-09-10T17:34:01.247Z,18.90
2022-09-10T17:36:29.563Z,18.80
2022-09-10T17:38:59.136Z,18.80
2022-09-10T17:41:30.075Z,18.70
2022-09-10T17:43:59.655Z,18.60
2022-09-10T17:46:28.433Z,18.60
2022-09-10T17:48:56.634Z,18.60
2022-09-10T17:51:25.668Z,18.60
2022-09-10T17:53:55.334Z,18.50
2022-09-10T17:56:24.518Z,18.50
2022-09-10T17:58:58.567Z,18.50
2022-09-10T18:01:29.465Z,18.40
2022-09-10T18:03:57.680Z,18.40
2022-09-10T18:06:27.042Z,18.40
2022-09-10T18:08:59.174Z,18.30
2022-09-10T18:11:28.653Z,18.30
2022-09-10T18:13:58.773Z,18.30
2022-09-10T18:16:28.070Z,18.20
2022-09-10T18:18:58.352Z,18.20
2022-09-10T18:21:27.556Z,18.20
2022-09-10T18:23:57.034Z,18.10
2022-09-10T18:26:26.167Z,18.10
2022-09-10T18:28:56.242Z,18.00
2022-09-10T18:31:27.111Z,18.00
2022-09-10T18:33:55.892Z,17.90
2022-09-10T18:42:30.807Z,17.80
2022-09-10T18:44:59.007Z,17.80
2022-09-10T18:47:44.060Z,17.80
2022-09-10T18:50:16.872Z,17.80
2022-09-10T18:52:45.596Z,17.80
2022-09-10T18:55:13.857Z,17.70
2022-09-10T18:57:42.256Z,17.60
2022-09-10T19:00:12.517Z,17.60
2022-09-10T19:02:41.545Z,17.60
2022-09-10T19:05:12.172Z,17.60
2022-09-10T19:07:42.716Z,17.50
2022-09-10T19:10:11.316Z,17.50
2022-09-10T19:13:15.997Z,17.50
2022-09-10T19:15:44.136Z,17.50
2022-09-10T19:18:12.455Z,17.50
2022-09-10T19:20:40.881Z,17.50
2022-09-10T19:23:12.856Z,17.50
2022-09-10T19:25:41.301Z,17.50
2022-09-10T19:28:28.526Z,17.50
2022-09-10T19:31:01.460Z,17.50
2022-09-10T19:33:29.785Z,17.40
2022-09-10T19:35:57.976Z,17.50
2022-09-10T19:38:37.612Z,17.40
2022-09-10T19:41:07.325Z,17.40
2022-09-10T19:43:40.982Z,17.40
2022-09-10T19:46:11.814Z,17.30
2022-09-10T19:48:40.335Z,17.30
2022-09-10T19:51:10.742Z,17.20
2022-09-10T19:53:40.685Z,17.20
2022-09-10T19:56:09.951Z,17.20
2022-09-10T19:58:38.346Z,17.20
2022-09-10T20:01:09.949Z,17.20
2022-09-10T20:03:38.212Z,17.10
2022-09-10T20:06:08.594Z,17.20
2022-09-10T20:08:37.198Z,17.10
2022-09-10T20:11:08.514Z,17.10
2022-09-10T20:13:37.964Z,17.10
2022-09-10T20:16:07.509Z,17.10
2022-09-10T20:18:36.495Z,17.10
2022-09-10T20:21:11.875Z,17.00
2022-09-10T20:23:41.796Z,17.00
2022-09-10T20:26:13.270Z,17.00
2022-09-10T20:28:43.735Z,16.90
2022-09-10T20:31:13.257Z,16.90
2022-09-10T20:33:42.685Z,16.90
2022-09-10T20:36:13.046Z,17.00
2022-09-10T20:38:43.704Z,17.00
2022-09-10T20:41:13.444Z,16.90
2022-09-10T20:43:41.773Z,16.90
2022-09-10T20:46:14.398Z,16.80
2022-09-10T20:48:47.057Z,16.80
2022-09-10T20:51:18.023Z,16.70
2022-09-10T20:53:47.914Z,16.70
2022-09-10T20:56:38.066Z,16.70
2022-09-10T20:59:08.094Z,16.70
2022-09-10T21:02:13.313Z,16.70
2022-09-10T21:04:41.932Z,16.70
2022-09-10T21:07:11.740Z,16.60
2022-09-10T21:09:42.173Z,16.60
2022-09-10T21:12:10.910Z,16.60
2022-09-10T21:14:40.526Z,16.50
2022-09-10T21:17:09.634Z,16.50
2022-09-10T21:19:38.190Z,16.40
2022-09-10T21:22:06.554Z,16.40
2022-09-10T21:24:35.723Z,16.40
2022-09-10T21:27:05.003Z,16.40
2022-09-10T21:29:33.247Z,16.40
2022-09-10T21:32:03.511Z,16.40
2022-09-10T21:34:32.565Z,16.40
2022-09-10T21:37:00.679Z,16.40
2022-09-10T21:39:28.924Z,16.40
2022-09-10T21:41:57.151Z,16.40
2022-09-10T21:44:28.040Z,16.40
2022-09-10T21:47:17.215Z,16.30
2022-09-10T21:49:47.474Z,16.30
2022-09-10T21:52:16.122Z,16.30
2022-09-10T21:54:44.203Z,16.30
2022-09-10T21:57:13.172Z,16.30
2022-09-10T21:59:42.364Z,16.20
2022-09-10T22:02:31.758Z,16.10
2022-09-10T22:05:04.901Z,16.10
2022-09-10T22:07:34.214Z,16.10
2022-09-10T22:10:02.411Z,16.10
2022-09-10T22:12:30.684Z,16.00
2022-09-10T22:14:58.877Z,16.00
2022-09-10T22:17:27.216Z,15.90
2022-09-10T22:19:56.051Z,15.90
2022-09-10T22:22:26.031Z,15.90
2022-09-10T22:24:55.840Z,15.80
2022-09-10T22:27:26.373Z,15.80
2022-09-10T22:29:57.370Z,15.80
2022-09-10T22:32:27.117Z,15.80
2022-09-10T22:34:55.393Z,15.80
2022-09-10T22:37:23.613Z,15.80
2022-09-10T22:39:53.516Z,15.80
2022-09-10T22:42:21.845Z,15.80
2022-09-10T22:44:50.264Z,15.80
2022-09-10T22:47:18.835Z,15.80
2022-09-10T22:49:47.673Z,15.80
2022-09-10T22:52:16.963Z,15.80
2022-09-10T22:54:47.334Z,15.80
2022-09-10T22:57:18.634Z,15.80
2022-09-10T22:59:48.834Z,15.80
2022-09-10T23:02:17.001Z,15.80
2022-09-10T23:04:45.153Z,15.70
2022-09-10T23:07:13.338Z,15.80
2022-09-10T23:09:41.568Z,15.80
2022-09-10T23:12:10.861Z,15.80
2022-09-10T23:14:40.471Z,15.80
2022-09-10T23:17:09.152Z,15.80
2022-09-10T23:19:37.393Z,15.80
2022-09-10T23:22:05.756Z,15.80
2022-09-10T23:24:33.896Z,15.80
2022-09-10T23:27:03.531Z,15.70
2022-09-10T23:29:31.972Z,15.70
2022-09-10T23:32:02.681Z,15.70
2022-09-10T23:34:30.826Z,15.60
2022-09-10T23:36:58.992Z,15.70
2022-09-10T23:39:27.176Z,15.70
2022-09-10T23:41:56.842Z,15.70
2022-09-10T23:44:25.066Z,15.60
2022-09-10T23:46:53.702Z,15.60
2022-09-10T23:49:24.082Z,15.70
2022-09-10T23:51:53.373Z,15.70
2022-09-10T23:54:21.536Z,15.60
2022-09-10T23:56:49.898Z,15.60
2022-09-10T23:59:18.065Z,15.60
